createdAt,value
2019-01-18T00:02:45.026Z,1.13
2019-01-18T00:05:48.995Z,0.70
2019-01-18T00:08:52.900Z,1.10
2019-01-18T00:11:56.866Z,1.37
2019-01-18T00:15:00.833Z,1.20
2019-01-18T00:18:05.324Z,1.23
2019-01-18T00:21:09.653Z,1.13
2019-01-18T00:24:13.465Z,1.10
2019-01-18T00:27:17.347Z,1.40
2019-01-18T00:30:21.551Z,3.10
2019-01-18T00:33:25.384Z,3.67
2019-01-18T00:36:29.249Z,3.07
2019-01-18T00:39:33.420Z,2.53
2019-01-18T00:42:37.539Z,1.43
2019-01-18T00:45:41.496Z,1.07
2019-01-18T00:48:45.477Z,1.20
2019-01-18T00:51:49.468Z,1.03
2019-01-18T00:54:53.372Z,0.80
2019-01-18T00:57:57.322Z,0.90
2019-01-18T01:01:01.196Z,1.00
2019-01-18T01:04:05.642Z,1.20
2019-01-18T01:07:09.511Z,0.93
2019-01-18T01:10:13.952Z,1.00
2019-01-18T01:13:17.924Z,0.80
2019-01-18T01:16:21.962Z,1.00
2019-01-18T01:19:25.908Z,1.00
2019-01-18T01:22:29.973Z,0.70
2019-01-18T01:25:33.848Z,1.20
2019-01-18T01:28:37.812Z,0.93
2019-01-18T01:31:41.737Z,1.20
2019-01-18T01:34:45.696Z,1.00
2019-01-18T01:37:50.073Z,0.90
2019-01-18T01:40:54.014Z,1.10
2019-01-18T01:43:57.891Z,1.30
2019-01-18T01:47:01.755Z,0.90
2019-01-18T01:50:07.427Z,0.83
2019-01-18T01:53:11.268Z,0.70
2019-01-18T01:56:15.372Z,1.07
2019-01-18T01:59:19.335Z,1.17
2019-01-18T02:02:23.321Z,0.90
2019-01-18T02:05:27.279Z,0.63
2019-01-18T02:08:31.172Z,0.73
2019-01-18T02:11:35.142Z,1.00
2019-01-18T02:14:39.122Z,0.63
2019-01-18T02:17:43.071Z,0.80
2019-01-18T02:20:46.958Z,0.90
2019-01-18T02:23:50.894Z,1.10
2019-01-18T02:26:54.764Z,1.00
2019-01-18T02:29:58.629Z,1.73
2019-01-18T02:33:02.503Z,1.13
2019-01-18T02:36:06.682Z,1.50
2019-01-18T02:39:10.621Z,1.30
2019-01-18T02:42:14.487Z,1.53
2019-01-18T02:45:20.461Z,1.60
2019-01-18T02:48:24.361Z,1.00
2019-01-18T02:51:28.148Z,1.30
2019-01-18T02:54:32.016Z,1.13
2019-01-18T02:57:36.201Z,1.10
2019-01-18T03:00:40.089Z,1.30
2019-01-18T03:03:43.879Z,1.07
2019-01-18T03:06:47.737Z,1.00
2019-01-18T03:09:51.632Z,0.93
2019-01-18T03:12:55.509Z,1.00
2019-01-18T03:15:59.395Z,1.50
2019-01-18T03:19:03.260Z,1.10
2019-01-18T03:22:07.155Z,0.50
2019-01-18T03:25:13.969Z,1.10
2019-01-18T03:28:17.953Z,0.90
2019-01-18T03:31:21.817Z,0.70
2019-01-18T03:34:25.706Z,1.20
2019-01-18T03:37:29.577Z,1.20
2019-01-18T03:40:33.547Z,0.90
2019-01-18T03:43:37.426Z,1.00
2019-01-18T03:46:41.302Z,1.00
2019-01-18T03:49:45.181Z,1.00
2019-01-18T03:52:49.125Z,1.10
2019-01-18T03:55:53.200Z,0.83
2019-01-18T03:58:57.083Z,0.80
2019-01-18T04:02:00.973Z,0.87
2019-01-18T04:05:05.702Z,0.80
2019-01-18T04:08:09.662Z,0.70
2019-01-18T04:11:13.547Z,0.90
2019-01-18T04:14:17.421Z,0.83
2019-01-18T04:17:21.328Z,0.60
2019-01-18T04:20:25.568Z,0.70
2019-01-18T04:23:29.450Z,0.90
2019-01-18T04:26:33.324Z,0.40
2019-01-18T04:29:37.209Z,0.83
2019-01-18T04:32:41.222Z,0.83
2019-01-18T04:35:45.027Z,0.93
2019-01-18T04:38:48.853Z,0.83
2019-01-18T04:41:52.680Z,0.70
2019-01-18T04:44:56.557Z,0.83
2019-01-18T04:48:00.367Z,0.63
2019-01-18T04:51:04.254Z,1.37
2019-01-18T04:54:08.038Z,0.93
2019-01-18T04:57:11.872Z,0.70
2019-01-18T05:00:23.572Z,0.80
2019-01-18T05:03:27.441Z,0.83
2019-01-18T05:06:31.272Z,0.90
2019-01-18T05:09:35.187Z,1.07
2019-01-18T05:12:39.120Z,0.80
2019-01-18T05:15:43.029Z,1.17
2019-01-18T05:18:46.936Z,0.53
2019-01-18T05:21:50.750Z,0.97
2019-01-18T05:24:54.588Z,0.60
2019-01-18T05:27:58.484Z,1.20
2019-01-18T05:31:02.298Z,0.93
2019-01-18T05:34:06.347Z,0.67
2019-01-18T05:37:10.312Z,0.73
2019-01-18T05:40:15.554Z,0.63
2019-01-18T05:43:19.368Z,1.00
2019-01-18T05:46:23.186Z,1.20
2019-01-18T05:49:27.029Z,0.70
2019-01-18T05:52:32.550Z,1.00
2019-01-18T05:55:36.411Z,0.73
2019-01-18T05:58:40.312Z,0.57
2019-01-18T06:01:44.135Z,0.70
2019-01-18T06:04:49.103Z,0.90
2019-01-18T06:07:52.985Z,0.90
2019-01-18T06:10:56.818Z,0.70
2019-01-18T06:14:00.704Z,1.03
2019-01-18T06:17:04.697Z,1.13
2019-01-18T06:20:09.404Z,0.80
2019-01-18T06:23:13.296Z,0.70
2019-01-18T06:26:17.184Z,0.77
2019-01-18T06:29:21.082Z,0.90
2019-01-18T06:32:24.906Z,1.10
2019-01-18T06:35:28.868Z,1.07
2019-01-18T06:38:32.781Z,1.23
2019-01-18T06:41:52.495Z,1.50
2019-01-18T06:44:56.320Z,1.13
2019-01-18T06:48:00.225Z,1.07
2019-01-18T06:51:04.135Z,1.10
2019-01-18T06:54:08.173Z,1.30
2019-01-18T06:57:12.084Z,1.27
2019-01-18T07:00:22.036Z,0.80
2019-01-18T07:03:25.980Z,0.70
2019-01-18T07:06:29.867Z,0.97
2019-01-18T07:09:33.789Z,1.23
2019-01-18T07:12:37.681Z,1.00
2019-01-18T07:15:41.659Z,1.00
2019-01-18T07:18:45.554Z,1.00
2019-01-18T07:21:49.466Z,1.10
2019-01-18T07:24:53.346Z,1.00
2019-01-18T07:27:57.285Z,1.43
2019-01-18T07:31:01.264Z,1.30
2019-01-18T07:34:05.229Z,1.43
2019-01-18T07:37:09.126Z,1.37
2019-01-18T07:40:13.357Z,1.50
2019-01-18T07:43:17.243Z,1.40
2019-01-18T07:46:21.173Z,0.80
2019-01-18T07:49:25.007Z,1.20
2019-01-18T07:52:28.922Z,0.60
2019-01-18T07:55:32.833Z,1.30
2019-01-18T07:58:36.751Z,1.17
2019-01-18T08:01:40.714Z,2.40
2019-01-18T08:04:44.694Z,2.20
2019-01-18T08:07:48.727Z,2.33
2019-01-18T08:10:52.690Z,2.00
2019-01-18T08:13:56.710Z,1.63
2019-01-18T08:17:00.624Z,2.57
2019-01-18T08:20:05.533Z,3.40
2019-01-18T08:23:09.447Z,2.50
2019-01-18T08:26:13.394Z,3.30
2019-01-18T08:29:17.345Z,4.90
2019-01-18T08:32:21.168Z,4.93
2019-01-18T08:35:25.806Z,4.20
2019-01-18T08:38:29.756Z,5.60
2019-01-18T08:41:33.662Z,7.10
2019-01-18T08:44:37.551Z,5.57
2019-01-18T08:47:41.427Z,2.43
2019-01-18T08:50:45.328Z,1.73
2019-01-18T08:53:49.208Z,1.73
2019-01-18T08:56:53.129Z,3.80
2019-01-18T08:59:57.012Z,2.97
2019-01-18T09:03:00.998Z,3.10
2019-01-18T09:06:05.054Z,3.03
2019-01-18T09:09:09.600Z,3.80
2019-01-18T09:12:13.489Z,3.03
2019-01-18T09:15:17.476Z,3.10
2019-01-18T09:18:21.344Z,4.77
2019-01-18T09:21:25.284Z,2.60
2019-01-18T09:24:29.085Z,2.43
2019-01-18T09:27:32.954Z,1.23
2019-01-18T09:30:36.997Z,0.97
2019-01-18T09:33:40.869Z,1.20
2019-01-18T09:36:44.764Z,17.07
2019-01-18T09:39:48.638Z,9.87
2019-01-18T09:42:52.532Z,14.87
2019-01-18T09:45:56.418Z,7.70
2019-01-18T09:49:00.326Z,8.27
2019-01-18T09:52:04.406Z,8.57
2019-01-18T09:55:09.298Z,5.07
2019-01-18T09:58:13.191Z,4.73
2019-01-18T10:01:17.156Z,2.20
2019-01-18T10:04:21.040Z,6.17
2019-01-18T10:07:24.957Z,5.33
2019-01-18T10:10:28.831Z,5.67
2019-01-18T10:13:32.800Z,2.53
2019-01-18T10:16:36.674Z,2.10
2019-01-18T10:19:40.512Z,2.10
2019-01-18T10:22:45.227Z,4.73
2019-01-18T10:25:49.040Z,3.03
2019-01-18T10:28:52.916Z,3.07
2019-01-18T10:31:56.817Z,2.13
2019-01-18T10:35:00.663Z,1.33
2019-01-18T10:38:05.028Z,2.03
2019-01-18T10:41:09.022Z,1.90
2019-01-18T10:44:12.903Z,1.60
2019-01-18T10:47:16.887Z,5.57
2019-01-18T10:50:23.187Z,5.53
2019-01-18T10:53:27.056Z,5.00
2019-01-18T10:56:30.883Z,4.30
2019-01-18T10:59:34.810Z,4.23
2019-01-18T11:02:38.758Z,8.30
2019-01-18T11:05:42.745Z,6.63
2019-01-18T11:08:46.616Z,4.40
2019-01-18T11:11:50.578Z,2.50
2019-01-18T11:14:54.497Z,1.70
2019-01-18T11:17:58.386Z,4.73
2019-01-18T11:21:16.451Z,4.80
2019-01-18T11:24:20.334Z,5.03
2019-01-18T11:27:24.227Z,5.70
2019-01-18T11:30:28.143Z,4.33
2019-01-18T11:33:32.190Z,3.33
2019-01-18T11:36:36.165Z,5.33
2019-01-18T11:39:40.135Z,7.67
2019-01-18T11:42:44.107Z,3.20
2019-01-18T11:45:48.011Z,4.87
2019-01-18T11:48:51.972Z,2.90
2019-01-18T11:51:55.880Z,4.03
2019-01-18T11:54:59.891Z,3.30
2019-01-18T11:58:03.904Z,2.73
2019-01-18T12:01:07.860Z,2.67
2019-01-18T12:04:11.676Z,2.60
2019-01-18T12:07:15.534Z,2.60
2019-01-18T12:10:21.679Z,2.00
2019-01-18T12:13:25.499Z,2.33
2019-01-18T12:16:29.400Z,2.30
2019-01-18T12:19:33.192Z,1.83
2019-01-18T12:22:37.274Z,1.83
2019-01-18T12:25:41.156Z,1.67
2019-01-18T12:28:45.048Z,2.30
2019-01-18T12:31:48.850Z,2.00
2019-01-18T12:34:52.663Z,2.33
2019-01-18T12:37:56.635Z,1.80
2019-01-18T12:41:00.512Z,2.13
2019-01-18T12:44:04.381Z,3.13
2019-01-18T12:47:08.256Z,1.70
2019-01-18T12:50:19.062Z,2.47
2019-01-18T12:53:23.024Z,2.20
2019-01-18T12:56:26.904Z,1.87
2019-01-18T12:59:30.837Z,3.20
2019-01-18T13:02:35.405Z,2.40
2019-01-18T13:05:50.537Z,1.87
2019-01-18T13:08:54.694Z,2.00
2019-01-18T13:11:58.667Z,2.37
2019-01-18T13:15:02.627Z,4.87
2019-01-18T13:18:06.612Z,3.30
2019-01-18T13:21:10.494Z,1.90
2019-01-18T13:24:14.386Z,3.50
2019-01-18T13:27:18.338Z,4.07
2019-01-18T13:30:22.406Z,5.47
2019-01-18T13:33:26.336Z,10.23
2019-01-18T13:36:30.252Z,7.47
2019-01-18T13:39:34.134Z,11.10
2019-01-18T13:42:38.013Z,16.53
2019-01-18T13:45:42.507Z,11.00
2019-01-18T13:48:46.483Z,22.90
2019-01-18T13:51:50.367Z,13.07
2019-01-18T13:54:54.252Z,2.43
2019-01-18T13:57:58.219Z,6.30
2019-01-18T14:01:02.152Z,44.60
2019-01-18T14:04:06.040Z,15.67
2019-01-18T14:07:10.054Z,17.53
2019-01-18T14:10:16.924Z,5.00
2019-01-18T14:13:20.813Z,3.53
2019-01-18T14:16:24.687Z,3.37
2019-01-18T14:19:28.593Z,1.93
2019-01-18T14:22:32.473Z,8.13
2019-01-18T14:25:36.355Z,4.70
2019-01-18T14:28:40.273Z,4.60
2019-01-18T14:31:44.135Z,2.80
2019-01-18T14:34:48.015Z,3.57
2019-01-18T14:37:51.998Z,7.80
2019-01-18T14:40:55.963Z,10.40
2019-01-18T14:43:59.862Z,5.33
2019-01-18T14:47:03.760Z,3.70
2019-01-18T14:50:12.377Z,3.73
2019-01-18T14:53:16.254Z,2.77
2019-01-18T14:56:20.202Z,3.00
2019-01-18T14:59:24.020Z,10.67
2019-01-18T15:02:27.921Z,4.20
2019-01-18T15:05:31.863Z,3.10
2019-01-18T15:08:35.746Z,3.30
2019-01-18T15:11:39.828Z,1.93
2019-01-18T15:14:43.733Z,2.13
2019-01-18T15:17:47.661Z,2.23
2019-01-18T15:20:51.548Z,6.80
2019-01-18T15:23:55.357Z,7.80
2019-01-18T15:26:59.199Z,3.67
2019-01-18T15:30:06.810Z,3.97
2019-01-18T15:33:09.555Z,3.93
2019-01-18T15:36:13.649Z,6.70
2019-01-18T15:39:17.507Z,4.97
2019-01-18T15:42:21.498Z,2.90
2019-01-18T15:45:25.405Z,4.50
2019-01-18T15:48:29.242Z,5.33
2019-01-18T15:51:33.412Z,7.27
2019-01-18T15:54:37.388Z,6.77
2019-01-18T15:57:41.990Z,4.20
2019-01-18T16:00:46.072Z,3.60
2019-01-18T16:03:50.059Z,2.80
2019-01-18T16:06:53.991Z,2.27
2019-01-18T16:09:58.017Z,2.20
2019-01-18T16:13:01.900Z,2.80
2019-01-18T16:16:25.955Z,2.70
2019-01-18T16:19:29.868Z,4.07
2019-01-18T16:22:33.731Z,2.77
2019-01-18T16:25:38.526Z,2.50
2019-01-18T16:28:42.445Z,2.50
2019-01-18T16:31:46.322Z,2.87
2019-01-18T16:34:50.218Z,2.93
2019-01-18T16:37:54.282Z,5.77
2019-01-18T16:40:58.460Z,4.17
2019-01-18T16:44:02.384Z,4.30
2019-01-18T16:47:06.287Z,6.13
2019-01-18T16:50:13.278Z,5.83
2019-01-18T16:53:17.648Z,5.57
2019-01-18T16:56:21.577Z,6.13
2019-01-18T16:59:25.683Z,5.07
2019-01-18T17:02:29.883Z,7.73
2019-01-18T17:05:34.454Z,4.83
2019-01-18T17:08:38.740Z,3.40
2019-01-18T17:11:42.734Z,3.97
2019-01-18T17:14:46.685Z,10.53
2019-01-18T17:17:50.572Z,13.80
2019-01-18T17:20:54.603Z,5.27
2019-01-18T17:23:58.965Z,5.37
2019-01-18T17:27:02.962Z,2.43
2019-01-18T17:30:09.103Z,3.87
2019-01-18T17:33:13.613Z,5.00
2019-01-18T17:36:56.355Z,7.17
2019-01-18T17:40:26.821Z,11.20
2019-01-18T17:44:14.729Z,9.60
2019-01-18T17:47:50.408Z,6.80
2019-01-18T17:51:15.066Z,3.20
2019-01-18T17:54:46.653Z,2.67
2019-01-18T17:58:29.127Z,2.53
2019-01-18T18:02:04.652Z,2.13
2019-01-18T18:05:41.146Z,2.50
2019-01-18T18:08:57.780Z,2.37
2019-01-18T18:12:42.805Z,3.00
2019-01-18T18:16:19.983Z,3.00
2019-01-18T18:19:35.523Z,4.07
2019-01-18T18:23:14.916Z,5.57
2019-01-18T18:27:01.775Z,3.80
2019-01-18T18:30:42.758Z,2.80
2019-01-18T18:34:30.882Z,3.10
2019-01-18T18:38:17.385Z,2.93
2019-01-18T18:41:57.325Z,2.67
2019-01-18T18:45:37.394Z,1.97
2019-01-18T18:49:08.349Z,2.37
2019-01-18T18:52:48.895Z,2.07
2019-01-18T18:56:52.813Z,2.80
2019-01-18T19:00:43.605Z,4.63
2019-01-18T19:04:13.413Z,7.63
2019-01-18T19:07:37.536Z,22.40
2019-01-18T19:11:15.966Z,5.37
2019-01-18T19:14:30.496Z,7.30
2019-01-18T19:18:02.872Z,15.57
2019-01-18T19:21:37.997Z,8.20
2019-01-18T19:25:07.775Z,7.53
2019-01-18T19:28:45.812Z,6.73
2019-01-18T19:32:29.491Z,9.00
2019-01-18T19:36:18.110Z,13.20
2019-01-18T19:40:14.552Z,12.53
2019-01-18T19:44:08.845Z,7.60
2019-01-18T19:47:28.199Z,10.33
2019-01-18T19:51:07.978Z,8.10
2019-01-18T19:54:35.648Z,9.40
2019-01-18T19:58:25.394Z,5.27
2019-01-18T20:02:07.164Z,4.43
2019-01-18T20:05:33.855Z,3.10
2019-01-18T20:08:51.079Z,2.87
2019-01-18T20:12:25.792Z,3.33
2019-01-18T20:16:13.662Z,2.50
2019-01-18T20:19:39.306Z,3.30
2019-01-18T20:23:33.126Z,2.27
2019-01-18T20:27:06.048Z,1.60
2019-01-18T20:30:19.909Z,1.37
2019-01-18T20:33:50.863Z,2.03
2019-01-18T20:37:07.059Z,3.53
2019-01-18T20:40:46.397Z,3.30
2019-01-18T20:44:18.587Z,5.47
2019-01-18T20:48:16.854Z,4.97
2019-01-18T20:51:31.510Z,4.50
2019-01-18T20:55:09.146Z,4.23
2019-01-18T20:58:47.948Z,3.77
2019-01-18T21:02:15.416Z,3.40
2019-01-18T21:05:45.636Z,3.43
2019-01-18T21:09:13.663Z,3.53
2019-01-18T21:12:31.000Z,3.33
2019-01-18T21:16:11.018Z,5.40
2019-01-18T21:19:40.491Z,7.67
2019-01-18T21:23:46.952Z,6.83
2019-01-18T21:27:10.386Z,4.47
2019-01-18T21:30:48.017Z,5.00
2019-01-18T21:34:34.719Z,3.07
2019-01-18T21:38:26.115Z,6.23
2019-01-18T21:42:17.078Z,9.57
2019-01-18T21:45:56.512Z,5.13
2019-01-18T21:49:27.814Z,4.53
2019-01-18T21:53:14.375Z,4.50
2019-01-18T21:57:02.688Z,4.20
2019-01-18T22:00:22.959Z,4.90
2019-01-18T22:03:58.150Z,2.90
2019-01-18T22:07:45.513Z,2.80
2019-01-18T22:11:02.147Z,3.60
2019-01-18T22:14:57.823Z,2.90
2019-01-18T22:18:36.998Z,3.07
2019-01-18T22:22:16.814Z,2.77
2019-01-18T22:26:32.454Z,2.60
2019-01-18T22:29:57.136Z,3.90
2019-01-18T22:33:25.282Z,3.63
2019-01-18T22:36:58.515Z,3.20
2019-01-18T22:40:31.504Z,3.80
2019-01-18T22:44:24.712Z,3.20
2019-01-18T22:47:52.713Z,3.17
2019-01-18T22:51:36.021Z,2.87
2019-01-18T22:54:59.711Z,3.20
2019-01-18T22:59:02.923Z,3.97
2019-01-18T23:02:31.178Z,4.30
2019-01-18T23:06:05.134Z,3.80
2019-01-18T23:09:46.239Z,4.07
2019-01-18T23:13:00.627Z,4.17
2019-01-18T23:16:44.534Z,3.80
2019-01-18T23:20:32.069Z,3.90
2019-01-18T23:23:56.859Z,3.17
2019-01-18T23:27:32.128Z,3.20
2019-01-18T23:31:01.268Z,3.30
2019-01-18T23:34:16.240Z,3.93
2019-01-18T23:37:41.707Z,3.70
2019-01-18T23:41:20.370Z,3.33
2019-01-18T23:45:17.674Z,3.23
2019-01-18T23:48:55.906Z,3.63
2019-01-18T23:52:54.136Z,3.20
2019-01-18T23:56:20.926Z,3.27
